Terminal Aerodrome Forecast
Issued by NWS

Current Version | Previous Version | Text Only | Print | Product List | Glossary On
Versions: 1 2 3 4 5 6 7 8 9 10 11 12 13 14 15 16 17
368
FTUS46 KSEW 112322
TAFBLI
TAF
KBLI 112322Z 1200/1224 35005KT P6SM -RA OVC050
     FM120900 14008KT P6SM -RA OVC035
     FM121300 15012G18KT 4SM -RA BR OVC030
     FM121700 16012G20KT P6SM -SHRA BKN025 OVC045
     FM122100 18010G16KT P6SM VCSH SCT025 BKN050=

USA.gov is the U.S. government's official web portal to all federal, state and local government web resources and services.